PAL333 RPLL-RPVM
Flight info
| Callsign | PAL333 |
|---|---|
| Flight time | 0h 53m |
| Altitude | 35000 |
| Route | IPATA2R IPATA W25 BATAY BATAY3P |
| Aircraft | A35K/H-SDE2E3GHIJ3J4J5LM1ORWXY/LB1D1 |
Departure
| Time | 2026-05-07 11:25 |
|---|---|
| Airport | Ninoy Aquino International Airport (RPLL) |
Arrival
| Time | 2026-05-07 12:18 |
|---|---|
| Airport | Mactan Cebu International Airport (RPVM) |
| Time | Latitude | Longitude | Altitude | Speed | Heading |
|---|---|---|---|---|---|
| 2026-05-07 11:03 | 14.50426 | 121.00517 | 57 ft | 0 kts | 307° |
| 2026-05-07 11:14 | 14.50419 | 121.00527 | 57 ft | 2 kts | 306° |
| 2026-05-07 11:14 | 14.50410 | 121.00540 | 58 ft | 2 kts | 306° |
| 2026-05-07 11:14 | 14.50400 | 121.00554 | 58 ft | 2 kts | 306° |
| 2026-05-07 11:14 | 14.50390 | 121.00568 | 58 ft | 2 kts | 305° |
| 2026-05-07 11:15 | 14.50381 | 121.00581 | 59 ft | 2 kts | 306° |
| 2026-05-07 11:15 | 14.50372 | 121.00596 | 59 ft | 2 kts | 291° |
| 2026-05-07 11:15 | 14.50369 | 121.00612 | 59 ft | 2 kts | 266° |
| 2026-05-07 11:15 | 14.50371 | 121.00626 | 59 ft | 1 kts | 248° |
| 2026-05-07 11:16 | 14.50372 | 121.00627 | 59 ft | 1 kts | 245° |
| 2026-05-07 11:19 | 14.50366 | 121.00615 | 59 ft | 4 kts | 245° |
| 2026-05-07 11:19 | 14.50346 | 121.00584 | 59 ft | 7 kts | 235° |
| 2026-05-07 11:20 | 14.50314 | 121.00532 | 59 ft | 11 kts | 239° |
| 2026-05-07 11:20 | 14.50269 | 121.00453 | 58 ft | 15 kts | 239° |
| 2026-05-07 11:20 | 14.50216 | 121.00358 | 58 ft | 14 kts | 237° |
| 2026-05-07 11:20 | 14.50192 | 121.00338 | 60 ft | 0 kts | 201° |
| 2026-05-07 11:21 | 14.50188 | 121.00336 | 62 ft | 1 kts | 197° |
| 2026-05-07 11:21 | 14.50184 | 121.00336 | 63 ft | 0 kts | 188° |
| 2026-05-07 11:21 | 14.50171 | 121.00337 | 62 ft | 3 kts | 175° |
| 2026-05-07 11:21 | 14.50147 | 121.00339 | 62 ft | 4 kts | 181° |
| 2026-05-07 11:22 | 14.50123 | 121.00327 | 65 ft | 4 kts | 213° |
| 2026-05-07 11:22 | 14.50099 | 121.00298 | 61 ft | 6 kts | 239° |
| 2026-05-07 11:22 | 14.50070 | 121.00249 | 62 ft | 10 kts | 239° |
| 2026-05-07 11:22 | 14.50030 | 121.00179 | 61 ft | 13 kts | 240° |
| 2026-05-07 11:23 | 14.49984 | 121.00094 | 65 ft | 14 kts | 242° |
| 2026-05-07 11:23 | 14.49935 | 121.00002 | 64 ft | 15 kts | 237° |
| 2026-05-07 11:23 | 14.49854 | 120.99980 | 70 ft | 12 kts | 164° |
| 2026-05-07 11:23 | 14.49806 | 121.00032 | 66 ft | 11 kts | 99° |
| 2026-05-07 11:24 | 14.49837 | 121.00099 | 68 ft | 11 kts | 50° |
| 2026-05-07 11:24 | 14.49857 | 121.00132 | 64 ft | 0 kts | 60° |
| 2026-05-07 11:24 | 14.49917 | 121.00244 | 62 ft | 55 kts | 61° |
| 2026-05-07 11:24 | 14.50239 | 121.00823 | 63 ft | 127 kts | 60° |
| 2026-05-07 11:25 | 14.50773 | 121.01790 | 248 ft | 171 kts | 62° |
| 2026-05-07 11:25 | 14.51358 | 121.02843 | 1104 ft | 166 kts | 61° |
| 2026-05-07 11:25 | 14.51933 | 121.03860 | 1859 ft | 168 kts | 61° |
| 2026-05-07 11:25 | 14.52543 | 121.04939 | 2327 ft | 184 kts | 61° |
| 2026-05-07 11:26 | 14.53227 | 121.06173 | 2673 ft | 212 kts | 61° |
| 2026-05-07 11:26 | 14.53998 | 121.07580 | 3037 ft | 238 kts | 61° |
| 2026-05-07 11:26 | 14.54792 | 121.09022 | 3547 ft | 253 kts | 60° |
| 2026-05-07 11:26 | 14.55675 | 121.10619 | 4340 ft | 258 kts | 60° |
| 2026-05-07 11:27 | 14.56576 | 121.12251 | 5140 ft | 264 kts | 60° |
| 2026-05-07 11:27 | 14.57266 | 121.14015 | 5933 ft | 269 kts | 77° |
| 2026-05-07 11:27 | 14.57558 | 121.15934 | 6747 ft | 272 kts | 83° |
| 2026-05-07 11:27 | 14.57748 | 121.17693 | 7515 ft | 273 kts | 83° |
| 2026-05-07 11:28 | 14.57945 | 121.19520 | 8283 ft | 278 kts | 83° |
| 2026-05-07 11:28 | 14.58164 | 121.21514 | 9153 ft | 281 kts | 84° |
| 2026-05-07 11:28 | 14.58369 | 121.23533 | 10013 ft | 285 kts | 86° |
| 2026-05-07 11:28 | 14.58173 | 121.25608 | 10543 ft | 301 kts | 106° |
| 2026-05-07 11:29 | 14.57068 | 121.27512 | 10888 ft | 323 kts | 134° |
| 2026-05-07 11:29 | 14.55273 | 121.29027 | 11239 ft | 343 kts | 142° |
| 2026-05-07 11:29 | 14.53286 | 121.30502 | 11637 ft | 359 kts | 143° |
| 2026-05-07 11:29 | 14.51226 | 121.32038 | 12094 ft | 370 kts | 142° |
| 2026-05-07 11:30 | 14.49141 | 121.33611 | 12778 ft | 373 kts | 142° |
| 2026-05-07 11:30 | 14.47033 | 121.35209 | 13403 ft | 379 kts | 142° |
| 2026-05-07 11:30 | 14.44897 | 121.36838 | 13948 ft | 383 kts | 142° |
| 2026-05-07 11:30 | 14.42743 | 121.38486 | 14503 ft | 388 kts | 142° |
| 2026-05-07 11:31 | 14.40556 | 121.40161 | 14985 ft | 393 kts | 142° |
| 2026-05-07 11:31 | 14.38354 | 121.41843 | 15621 ft | 394 kts | 142° |
| 2026-05-07 11:31 | 14.36143 | 121.43536 | 16142 ft | 398 kts | 142° |
| 2026-05-07 11:31 | 14.33919 | 121.45237 | 16791 ft | 398 kts | 141° |
| 2026-05-07 11:32 | 14.29437 | 121.48670 | 17725 ft | 408 kts | 141° |
| 2026-05-07 11:32 | 14.27150 | 121.50421 | 18250 ft | 411 kts | 142° |
| 2026-05-07 11:32 | 14.24818 | 121.52204 | 18718 ft | 415 kts | 142° |
| 2026-05-07 11:33 | 14.22517 | 121.53956 | 19229 ft | 416 kts | 142° |
| 2026-05-07 11:33 | 14.20179 | 121.55733 | 19669 ft | 420 kts | 142° |
| 2026-05-07 11:33 | 14.17824 | 121.57526 | 20172 ft | 421 kts | 141° |
| 2026-05-07 11:33 | 14.15456 | 121.59329 | 20616 ft | 426 kts | 142° |
| 2026-05-07 11:34 | 14.13059 | 121.61157 | 21026 ft | 430 kts | 142° |
| 2026-05-07 11:34 | 14.10641 | 121.62997 | 21483 ft | 435 kts | 142° |
| 2026-05-07 11:34 | 14.08199 | 121.64860 | 21961 ft | 438 kts | 142° |
| 2026-05-07 11:34 | 14.05745 | 121.66733 | 22496 ft | 440 kts | 142° |
| 2026-05-07 11:35 | 14.03271 | 121.68617 | 22971 ft | 444 kts | 142° |
| 2026-05-07 11:35 | 14.01619 | 121.69876 | 23287 ft | 447 kts | 142° |
| 2026-05-07 11:35 | 13.99117 | 121.71783 | 23797 ft | 448 kts | 142° |
| 2026-05-07 11:35 | 13.95765 | 121.74338 | 24348 ft | 453 kts | 142° |
| 2026-05-07 11:36 | 13.93225 | 121.76276 | 24728 ft | 457 kts | 142° |
| 2026-05-07 11:36 | 13.90658 | 121.78232 | 25179 ft | 460 kts | 142° |
| 2026-05-07 11:36 | 13.88916 | 121.79559 | 25542 ft | 461 kts | 143° |
| 2026-05-07 11:36 | 13.86324 | 121.81534 | 26013 ft | 466 kts | 142° |
| 2026-05-07 11:37 | 13.83740 | 121.83499 | 26533 ft | 469 kts | 143° |
| 2026-05-07 11:37 | 13.81095 | 121.85499 | 27026 ft | 473 kts | 143° |
| 2026-05-07 11:37 | 13.78418 | 121.87515 | 27555 ft | 476 kts | 143° |
| 2026-05-07 11:37 | 13.75732 | 121.89536 | 28048 ft | 480 kts | 143° |
| 2026-05-07 11:38 | 13.73024 | 121.91574 | 28543 ft | 484 kts | 144° |
| 2026-05-07 11:38 | 13.70292 | 121.93632 | 29056 ft | 488 kts | 144° |
| 2026-05-07 11:38 | 13.67546 | 121.95701 | 29529 ft | 491 kts | 144° |
| 2026-05-07 11:38 | 13.64822 | 121.97754 | 30068 ft | 492 kts | 144° |
| 2026-05-07 11:39 | 13.62049 | 121.99843 | 30446 ft | 496 kts | 144° |
| 2026-05-07 11:39 | 13.59256 | 122.01947 | 30811 ft | 499 kts | 144° |
| 2026-05-07 11:39 | 13.56443 | 122.04065 | 31148 ft | 503 kts | 144° |
| 2026-05-07 11:39 | 13.53607 | 122.06200 | 31511 ft | 505 kts | 144° |
| 2026-05-07 11:40 | 13.50758 | 122.08344 | 31915 ft | 507 kts | 145° |
| 2026-05-07 11:40 | 13.47914 | 122.10484 | 32417 ft | 506 kts | 145° |
| 2026-05-07 11:40 | 13.45073 | 122.12622 | 32935 ft | 504 kts | 145° |
| 2026-05-07 11:40 | 13.42283 | 122.14720 | 33435 ft | 503 kts | 146° |
| 2026-05-07 11:41 | 13.39463 | 122.16841 | 33921 ft | 502 kts | 146° |
| 2026-05-07 11:41 | 13.36647 | 122.18957 | 34312 ft | 501 kts | 146° |
| 2026-05-07 11:41 | 13.33833 | 122.21071 | 34683 ft | 501 kts | 146° |
| 2026-05-07 11:41 | 13.31014 | 122.23188 | 34840 ft | 502 kts | 146° |
| 2026-05-07 11:42 | 13.28195 | 122.25305 | 34868 ft | 502 kts | 146° |
| 2026-05-07 11:42 | 13.22554 | 122.29538 | 34868 ft | 503 kts | 146° |
| 2026-05-07 11:43 | 13.16901 | 122.33778 | 34867 ft | 503 kts | 146° |
| 2026-05-07 11:43 | 13.11248 | 122.38016 | 34869 ft | 503 kts | 146° |
| 2026-05-07 11:44 | 13.05594 | 122.42252 | 34872 ft | 503 kts | 146° |
| 2026-05-07 11:44 | 12.99978 | 122.46457 | 34866 ft | 503 kts | 146° |
| 2026-05-07 11:45 | 12.94326 | 122.50686 | 34871 ft | 503 kts | 146° |
| 2026-05-07 11:45 | 12.88671 | 122.54916 | 34869 ft | 503 kts | 146° |
| 2026-05-07 11:46 | 12.83016 | 122.59143 | 34865 ft | 502 kts | 146° |
| 2026-05-07 11:46 | 12.77360 | 122.63369 | 34868 ft | 503 kts | 146° |
| 2026-05-07 11:47 | 12.71707 | 122.67590 | 34867 ft | 504 kts | 146° |
| 2026-05-07 11:47 | 12.66074 | 122.71792 | 34871 ft | 504 kts | 146° |
| 2026-05-07 11:48 | 12.60408 | 122.76017 | 34868 ft | 504 kts | 146° |
| 2026-05-07 11:48 | 12.54739 | 122.80243 | 34869 ft | 504 kts | 146° |
| 2026-05-07 11:49 | 12.49064 | 122.84472 | 34868 ft | 504 kts | 146° |
| 2026-05-07 11:49 | 12.43394 | 122.88694 | 34868 ft | 504 kts | 146° |
| 2026-05-07 11:50 | 12.37714 | 122.92920 | 34870 ft | 504 kts | 146° |
| 2026-05-07 11:50 | 12.32042 | 122.97140 | 34867 ft | 504 kts | 146° |
| 2026-05-07 11:51 | 12.26400 | 123.01333 | 34865 ft | 503 kts | 146° |
| 2026-05-07 11:51 | 12.20739 | 123.05538 | 34865 ft | 502 kts | 146° |
| 2026-05-07 11:52 | 12.15088 | 123.09733 | 34863 ft | 502 kts | 146° |
| 2026-05-07 11:52 | 12.09443 | 123.13922 | 34868 ft | 502 kts | 146° |
| 2026-05-07 11:53 | 12.03792 | 123.18115 | 34865 ft | 501 kts | 146° |
| 2026-05-07 11:53 | 11.98149 | 123.22298 | 34866 ft | 500 kts | 146° |
| 2026-05-07 11:54 | 11.92809 | 123.26254 | 34858 ft | 498 kts | 146° |
| 2026-05-07 11:54 | 11.87205 | 123.30404 | 34867 ft | 497 kts | 146° |
| 2026-05-07 11:55 | 11.81595 | 123.34557 | 34862 ft | 497 kts | 146° |
| 2026-05-07 11:55 | 11.75997 | 123.38699 | 34859 ft | 497 kts | 146° |
| 2026-05-07 11:56 | 11.70395 | 123.42841 | 34808 ft | 495 kts | 146° |
| 2026-05-07 11:56 | 11.67645 | 123.44874 | 34593 ft | 495 kts | 146° |
| 2026-05-07 11:56 | 11.64852 | 123.46937 | 34371 ft | 496 kts | 146° |
| 2026-05-07 11:56 | 11.62058 | 123.49002 | 33908 ft | 493 kts | 145° |
| 2026-05-07 11:57 | 11.59280 | 123.51054 | 33116 ft | 493 kts | 145° |
| 2026-05-07 11:57 | 11.56491 | 123.53113 | 32299 ft | 494 kts | 145° |
| 2026-05-07 11:57 | 11.53697 | 123.55175 | 31478 ft | 496 kts | 145° |
| 2026-05-07 11:57 | 11.50893 | 123.57245 | 30656 ft | 497 kts | 145° |
| 2026-05-07 11:58 | 11.48112 | 123.59296 | 29767 ft | 500 kts | 144° |
| 2026-05-07 11:58 | 11.45285 | 123.61381 | 28781 ft | 502 kts | 144° |
| 2026-05-07 11:58 | 11.42471 | 123.63455 | 28140 ft | 498 kts | 144° |
| 2026-05-07 11:58 | 11.39674 | 123.65517 | 27519 ft | 493 kts | 143° |
| 2026-05-07 11:59 | 11.36911 | 123.67554 | 26872 ft | 488 kts | 143° |
| 2026-05-07 11:59 | 11.34172 | 123.69572 | 26244 ft | 484 kts | 143° |
| 2026-05-07 11:59 | 11.31450 | 123.71579 | 25609 ft | 480 kts | 143° |
| 2026-05-07 11:59 | 11.28755 | 123.73564 | 24983 ft | 476 kts | 143° |
| 2026-05-07 12:00 | 11.26079 | 123.75536 | 24365 ft | 472 kts | 143° |
| 2026-05-07 12:00 | 11.23554 | 123.77395 | 23782 ft | 469 kts | 142° |
| 2026-05-07 12:00 | 11.20922 | 123.79333 | 23109 ft | 465 kts | 142° |
| 2026-05-07 12:00 | 11.18343 | 123.81220 | 22464 ft | 460 kts | 143° |
| 2026-05-07 12:01 | 11.15524 | 123.82810 | 21786 ft | 458 kts | 157° |
| 2026-05-07 12:01 | 11.12704 | 123.83527 | 21200 ft | 457 kts | 172° |
| 2026-05-07 12:01 | 11.09529 | 123.83436 | 20579 ft | 456 kts | 188° |
| 2026-05-07 12:01 | 11.06451 | 123.82652 | 19953 ft | 454 kts | 194° |
| 2026-05-07 12:02 | 11.03443 | 123.81743 | 19321 ft | 450 kts | 194° |
| 2026-05-07 12:02 | 11.00442 | 123.80851 | 18687 ft | 447 kts | 194° |
| 2026-05-07 12:02 | 10.97461 | 123.79987 | 18043 ft | 444 kts | 193° |
| 2026-05-07 12:02 | 10.94530 | 123.79152 | 17349 ft | 440 kts | 193° |
| 2026-05-07 12:03 | 10.91587 | 123.78320 | 16689 ft | 436 kts | 193° |
| 2026-05-07 12:03 | 10.88673 | 123.77502 | 16057 ft | 431 kts | 193° |
| 2026-05-07 12:03 | 10.85788 | 123.76694 | 15411 ft | 427 kts | 193° |
| 2026-05-07 12:03 | 10.82935 | 123.75896 | 14769 ft | 423 kts | 193° |
| 2026-05-07 12:04 | 10.80106 | 123.75107 | 14130 ft | 420 kts | 193° |
| 2026-05-07 12:04 | 10.77291 | 123.74326 | 13457 ft | 417 kts | 192° |
| 2026-05-07 12:04 | 10.74543 | 123.73559 | 12775 ft | 413 kts | 192° |
| 2026-05-07 12:04 | 10.71795 | 123.72791 | 12205 ft | 406 kts | 192° |
| 2026-05-07 12:05 | 10.69097 | 123.72037 | 11647 ft | 399 kts | 192° |
| 2026-05-07 12:05 | 10.66425 | 123.71292 | 11027 ft | 395 kts | 192° |
| 2026-05-07 12:05 | 10.63867 | 123.70576 | 10791 ft | 364 kts | 192° |
| 2026-05-07 12:05 | 10.61538 | 123.69921 | 10672 ft | 331 kts | 192° |
| 2026-05-07 12:06 | 10.59405 | 123.69322 | 10531 ft | 304 kts | 192° |
| 2026-05-07 12:06 | 10.57413 | 123.68767 | 10429 ft | 291 kts | 191° |
| 2026-05-07 12:06 | 10.55489 | 123.68234 | 10300 ft | 284 kts | 191° |
| 2026-05-07 12:06 | 10.53605 | 123.67713 | 10186 ft | 284 kts | 191° |
| 2026-05-07 12:07 | 10.51703 | 123.67187 | 9998 ft | 283 kts | 191° |
| 2026-05-07 12:07 | 10.49779 | 123.66656 | 9466 ft | 290 kts | 191° |
| 2026-05-07 12:07 | 10.47787 | 123.66106 | 9274 ft | 299 kts | 191° |
| 2026-05-07 12:07 | 10.45788 | 123.65549 | 9086 ft | 299 kts | 191° |
| 2026-05-07 12:08 | 10.43783 | 123.64991 | 8782 ft | 298 kts | 191° |
| 2026-05-07 12:08 | 10.41785 | 123.64434 | 8448 ft | 297 kts | 191° |
| 2026-05-07 12:08 | 10.39801 | 123.63881 | 8115 ft | 295 kts | 191° |
| 2026-05-07 12:08 | 10.37826 | 123.63332 | 7795 ft | 293 kts | 191° |
| 2026-05-07 12:09 | 10.35853 | 123.62971 | 7443 ft | 287 kts | 176° |
| 2026-05-07 12:09 | 10.33953 | 123.63371 | 7123 ft | 275 kts | 150° |
| 2026-05-07 12:09 | 10.32432 | 123.64488 | 6820 ft | 268 kts | 133° |
| 2026-05-07 12:09 | 10.31105 | 123.65829 | 6503 ft | 268 kts | 130° |
| 2026-05-07 12:10 | 10.29802 | 123.67185 | 6193 ft | 267 kts | 131° |
| 2026-05-07 12:10 | 10.28503 | 123.68525 | 5874 ft | 264 kts | 132° |
| 2026-05-07 12:10 | 10.27223 | 123.69834 | 5602 ft | 263 kts | 132° |
| 2026-05-07 12:10 | 10.25934 | 123.71150 | 5293 ft | 262 kts | 132° |
| 2026-05-07 12:11 | 10.24650 | 123.72460 | 5016 ft | 261 kts | 132° |
| 2026-05-07 12:11 | 10.23375 | 123.73767 | 4708 ft | 261 kts | 132° |
| 2026-05-07 12:11 | 10.22095 | 123.75067 | 4411 ft | 260 kts | 132° |
| 2026-05-07 12:11 | 10.20816 | 123.76363 | 4090 ft | 258 kts | 132° |
| 2026-05-07 12:12 | 10.19568 | 123.77627 | 3928 ft | 247 kts | 132° |
| 2026-05-07 12:12 | 10.18400 | 123.78807 | 3827 ft | 225 kts | 131° |
| 2026-05-07 12:12 | 10.17347 | 123.79872 | 3718 ft | 202 kts | 131° |
| 2026-05-07 12:12 | 10.16526 | 123.80921 | 3657 ft | 183 kts | 115° |
| 2026-05-07 12:13 | 10.16211 | 123.82138 | 3557 ft | 181 kts | 84° |
| 2026-05-07 12:13 | 10.16606 | 123.83351 | 3501 ft | 182 kts | 65° |
| 2026-05-07 12:13 | 10.17357 | 123.84390 | 3411 ft | 183 kts | 48° |
| 2026-05-07 12:13 | 10.18249 | 123.85291 | 3206 ft | 179 kts | 49° |
| 2026-05-07 12:14 | 10.19116 | 123.86182 | 2957 ft | 176 kts | 48° |
| 2026-05-07 12:14 | 10.19972 | 123.87050 | 2704 ft | 170 kts | 47° |
| 2026-05-07 12:14 | 10.20790 | 123.87876 | 2450 ft | 161 kts | 46° |
| 2026-05-07 12:14 | 10.21548 | 123.88643 | 2265 ft | 151 kts | 46° |
| 2026-05-07 12:15 | 10.22276 | 123.89380 | 2062 ft | 144 kts | 46° |
| 2026-05-07 12:15 | 10.22987 | 123.90099 | 1878 ft | 144 kts | 45° |
| 2026-05-07 12:15 | 10.23684 | 123.90804 | 1684 ft | 139 kts | 45° |
| 2026-05-07 12:15 | 10.24367 | 123.91495 | 1494 ft | 138 kts | 45° |
| 2026-05-07 12:16 | 10.25049 | 123.92184 | 1330 ft | 138 kts | 45° |
| 2026-05-07 12:16 | 10.25733 | 123.92875 | 1135 ft | 139 kts | 45° |
| 2026-05-07 12:16 | 10.26419 | 123.93568 | 956 ft | 139 kts | 45° |
| 2026-05-07 12:16 | 10.27104 | 123.94261 | 769 ft | 139 kts | 44° |
| 2026-05-07 12:17 | 10.27790 | 123.94954 | 587 ft | 139 kts | 43° |
| 2026-05-07 12:17 | 10.28475 | 123.95647 | 377 ft | 137 kts | 43° |
| 2026-05-07 12:17 | 10.29131 | 123.96332 | 223 ft | 137 kts | 41° |
| 2026-05-07 12:17 | 10.29813 | 123.97002 | 115 ft | 138 kts | 42° |
| 2026-05-07 12:18 | 10.30488 | 123.97682 | 42 ft | 126 kts | 45° |
| 2026-05-07 12:18 | 10.30934 | 123.98124 | 42 ft | 48 kts | 45° |
| 2026-05-07 12:18 | 10.31008 | 123.98198 | 43 ft | 9 kts | 43° |
| 2026-05-07 12:18 | 10.31072 | 123.98252 | 43 ft | 13 kts | 33° |
| 2026-05-07 12:19 | 10.31175 | 123.98308 | 44 ft | 21 kts | 24° |
| 2026-05-07 12:19 | 10.31315 | 123.98351 | 45 ft | 22 kts | 2° |
| 2026-05-07 12:19 | 10.31427 | 123.98287 | 44 ft | 18 kts | 314° |
| 2026-05-07 12:19 | 10.31421 | 123.98200 | 45 ft | 11 kts | 225° |
| 2026-05-07 12:20 | 10.31359 | 123.98137 | 44 ft | 14 kts | 221° |
| 2026-05-07 12:20 | 10.31276 | 123.98061 | 45 ft | 16 kts | 225° |
| 2026-05-07 12:20 | 10.31252 | 123.97969 | 45 ft | 11 kts | 313° |
| 2026-05-07 12:20 | 10.31308 | 123.97908 | 45 ft | 10 kts | 301° |
| 2026-05-07 12:21 | 10.31314 | 123.97842 | 44 ft | 9 kts | 275° |
| 2026-05-07 12:21 | 10.31327 | 123.97821 | 44 ft | 2 kts | 314° |
| 2026-05-07 12:21 | 10.31345 | 123.97802 | 44 ft | 5 kts | 315° |
| 2026-05-07 12:21 | 10.31356 | 123.97790 | 44 ft | 0 kts | 314° |